createdAt,value
2018-11-02T00:00:57.008Z,2.00
2018-11-02T00:03:27.088Z,3.60
2018-11-02T00:05:57.420Z,3.60
2018-11-02T00:08:27.604Z,4.00
2018-11-02T00:10:57.559Z,2.00
2018-11-02T00:13:27.614Z,2.00
2018-11-02T00:15:57.592Z,2.00
2018-11-02T00:18:27.235Z,4.00
2018-11-02T00:20:56.967Z,3.60
2018-11-02T00:23:26.705Z,4.00
2018-11-02T00:25:56.459Z,4.00
2018-11-02T00:28:26.351Z,2.00
2018-11-02T00:30:56.116Z,2.00
2018-11-02T00:33:25.857Z,5.00
2018-11-02T00:35:55.562Z,4.00
2018-11-02T00:38:25.583Z,4.00
2018-11-02T00:40:55.275Z,3.60
2018-11-02T00:43:25.177Z,2.80
2018-11-02T00:45:56.326Z,4.00
2018-11-02T00:48:26.164Z,3.60
2018-11-02T00:50:55.912Z,3.60
2018-11-02T00:53:25.908Z,4.00
2018-11-02T00:55:55.832Z,4.00
2018-11-02T00:58:25.741Z,4.00
2018-11-02T01:00:55.590Z,5.00
2018-11-02T01:03:26.380Z,3.20
2018-11-02T01:05:56.712Z,1.20
2018-11-02T01:08:26.403Z,2.00
2018-11-02T01:10:56.667Z,2.00
2018-11-02T01:13:26.783Z,3.00
2018-11-02T01:15:56.447Z,3.00
2018-11-02T01:18:26.284Z,2.80
2018-11-02T01:20:56.028Z,3.00
2018-11-02T01:23:25.615Z,4.00
2018-11-02T01:25:55.354Z,2.00
2018-11-02T01:28:25.683Z,2.00
2018-11-02T01:30:55.388Z,2.80
2018-11-02T01:33:30.001Z,2.00
2018-11-02T01:35:59.980Z,3.20
2018-11-02T01:38:29.704Z,2.40
2018-11-02T01:40:59.504Z,2.00
2018-11-02T01:43:29.086Z,1.60
2018-11-02T01:45:59.231Z,1.80
2018-11-02T01:48:29.079Z,3.20
2018-11-02T01:50:58.908Z,2.80
2018-11-02T01:53:29.131Z,2.00
2018-11-02T01:55:59.308Z,3.60
2018-11-02T01:58:28.974Z,2.00
2018-11-02T02:00:59.363Z,1.60
2018-11-02T02:03:29.009Z,1.00
2018-11-02T02:05:59.184Z,2.40
2018-11-02T02:08:28.967Z,3.20
2018-11-02T02:10:58.808Z,3.20
2018-11-02T02:13:28.584Z,1.80
2018-11-02T02:15:59.097Z,1.60
2018-11-02T02:18:28.684Z,2.00
2018-11-02T02:20:58.783Z,1.60
2018-11-02T02:23:28.584Z,1.20
2018-11-02T02:25:58.445Z,1.20
2018-11-02T02:28:28.122Z,3.20
2018-11-02T02:30:58.136Z,2.00
2018-11-02T02:33:27.752Z,4.00
2018-11-02T02:35:57.556Z,2.00
2018-11-02T02:38:27.198Z,2.00
2018-11-02T02:40:57.174Z,1.00
2018-11-02T02:43:27.358Z,1.00
2018-11-02T02:45:57.141Z,2.00
2018-11-02T02:48:26.847Z,1.40
2018-11-02T02:50:56.859Z,1.20
2018-11-02T02:53:26.473Z,4.60
2018-11-02T02:55:56.320Z,1.00
2018-11-02T02:58:25.973Z,2.40
2018-11-02T03:00:56.092Z,2.00
2018-11-02T03:03:25.807Z,2.00
2018-11-02T03:05:55.396Z,1.40
2018-11-02T03:08:25.136Z,2.00
2018-11-02T03:10:54.996Z,1.00
2018-11-02T03:13:25.151Z,1.00
2018-11-02T03:15:58.463Z,2.00
2018-11-02T03:18:28.616Z,1.00
2018-11-02T03:20:58.714Z,2.80
2018-11-02T03:23:29.522Z,1.00
2018-11-02T03:25:59.590Z,1.00
2018-11-02T03:28:29.676Z,2.00
2018-11-02T03:30:59.354Z,1.00
2018-11-02T03:33:29.085Z,1.00
2018-11-02T03:35:58.765Z,1.40
2018-11-02T03:38:28.669Z,1.20
2018-11-02T03:40:58.735Z,2.80
2018-11-02T03:43:28.602Z,1.00
2018-11-02T03:45:58.221Z,2.00
2018-11-02T03:48:28.749Z,2.00
2018-11-02T03:50:59.118Z,1.00
2018-11-02T03:53:29.307Z,1.00
2018-11-02T03:55:59.698Z,2.40
2018-11-02T03:58:29.690Z,1.80
2018-11-02T04:00:59.433Z,1.00
2018-11-02T04:03:29.598Z,1.20
2018-11-02T04:05:59.686Z,1.80
2018-11-02T04:08:29.380Z,1.40
2018-11-02T04:10:59.251Z,1.00
2018-11-02T04:13:29.419Z,1.00
2018-11-02T04:15:59.119Z,1.00
2018-11-02T04:18:29.107Z,2.80
2018-11-02T04:20:58.898Z,1.80
2018-11-02T04:23:28.598Z,2.00
2018-11-02T04:25:58.322Z,1.40
2018-11-02T04:28:28.104Z,1.00
2018-11-02T04:30:57.907Z,1.00
2018-11-02T04:33:27.522Z,1.80
2018-11-02T04:35:57.461Z,1.00
2018-11-02T04:38:27.151Z,1.00
2018-11-02T04:40:57.390Z,1.00
2018-11-02T04:43:27.177Z,0.40
2018-11-02T04:45:57.322Z,1.60
2018-11-02T04:48:27.198Z,1.00
2018-11-02T04:50:57.004Z,1.00
2018-11-02T04:53:27.279Z,1.00
2018-11-02T04:55:57.246Z,2.00
2018-11-02T04:58:27.442Z,1.00
2018-11-02T05:00:57.173Z,1.00
2018-11-02T05:03:27.305Z,1.00
2018-11-02T05:05:56.948Z,1.00
2018-11-02T05:08:26.955Z,1.00
2018-11-02T05:10:56.636Z,1.20
2018-11-02T05:13:26.391Z,1.60
2018-11-02T05:15:56.552Z,1.20
2018-11-02T05:18:26.467Z,1.60
2018-11-02T05:20:56.179Z,1.80
2018-11-02T05:23:26.070Z,1.00
2018-11-02T05:25:56.129Z,0.40
2018-11-02T05:28:26.416Z,1.40
2018-11-02T05:30:56.217Z,1.60
2018-11-02T05:33:25.841Z,1.00
2018-11-02T05:35:55.700Z,3.80
2018-11-02T05:38:25.522Z,1.00
2018-11-02T05:40:56.084Z,0.60
2018-11-02T05:43:26.166Z,0.40
2018-11-02T05:45:55.879Z,1.00
2018-11-02T05:48:25.744Z,1.00
2018-11-02T05:50:56.205Z,0.40
2018-11-02T05:53:26.536Z,1.00
2018-11-02T05:58:26.281Z,1.00
2018-11-02T06:00:55.984Z,1.00
2018-11-02T06:03:25.838Z,1.00
2018-11-02T06:05:57.340Z,1.00
2018-11-02T06:08:30.126Z,0.80
2018-11-02T06:11:06.237Z,1.00
2018-11-02T06:13:36.371Z,1.80
2018-11-02T06:16:06.398Z,0.20
2018-11-02T06:18:36.186Z,0.60
2018-11-02T06:21:06.189Z,1.00
2018-11-02T06:23:35.925Z,1.60
2018-11-02T06:26:06.108Z,2.00
2018-11-02T06:28:35.846Z,1.40
2018-11-02T06:31:07.199Z,1.40
2018-11-02T06:33:36.841Z,1.00
2018-11-02T06:36:06.498Z,1.20
2018-11-02T06:38:36.380Z,0.60
2018-11-02T06:41:07.429Z,1.60
2018-11-02T06:43:37.806Z,1.00
2018-11-02T06:46:08.603Z,1.00
2018-11-02T06:48:39.739Z,1.00
2018-11-02T06:51:09.722Z,1.80
2018-11-02T06:53:39.662Z,1.40
2018-11-02T06:56:10.397Z,4.00
2018-11-02T06:58:41.194Z,1.00
2018-11-02T07:01:10.898Z,1.00
2018-11-02T07:03:41.694Z,1.80
2018-11-02T07:06:12.025Z,1.20
2018-11-02T07:08:42.811Z,2.00
2018-11-02T07:11:12.630Z,1.20
2018-11-02T07:13:42.659Z,1.00
2018-11-02T07:16:14.222Z,0.00
2018-11-02T07:18:44.146Z,0.00
2018-11-02T07:21:14.263Z,2.00
2018-11-02T07:23:44.372Z,2.00
2018-11-02T07:26:15.156Z,1.20
2018-11-02T07:28:45.383Z,1.00
2018-11-02T07:31:15.660Z,3.60
2018-11-02T07:33:46.161Z,2.00
2018-11-02T07:36:16.577Z,1.60
2018-11-02T07:38:47.162Z,1.40
2018-11-02T07:41:17.174Z,1.00
2018-11-02T07:43:47.387Z,1.00
2018-11-02T07:46:17.176Z,1.00
2018-11-02T07:48:47.143Z,1.00
2018-11-02T07:51:17.870Z,2.00
2018-11-02T07:53:48.183Z,1.80
2018-11-02T07:56:18.353Z,4.00
2018-11-02T07:58:49.680Z,1.00
2018-11-02T08:01:19.631Z,1.00
2018-11-02T08:03:50.221Z,1.00
2018-11-02T08:06:20.358Z,3.20
2018-11-02T08:08:50.046Z,2.00
2018-11-02T08:11:20.367Z,2.00
2018-11-02T08:13:49.946Z,3.60
2018-11-02T08:16:20.187Z,2.20
2018-11-02T08:18:50.140Z,4.00
2018-11-02T08:21:21.182Z,3.60
2018-11-02T08:23:51.117Z,4.00
2018-11-02T08:26:20.950Z,4.00
2018-11-02T08:28:51.282Z,2.00
2018-11-02T08:31:21.661Z,4.40
2018-11-02T08:33:51.318Z,2.40
2018-11-02T08:36:21.139Z,2.00
2018-11-02T08:38:51.194Z,4.00
2018-11-02T08:41:22.354Z,3.20
2018-11-02T08:43:52.494Z,4.00
2018-11-02T08:46:23.155Z,4.00
2018-11-02T08:48:53.330Z,3.00
2018-11-02T08:51:23.531Z,4.00
2018-11-02T08:53:53.308Z,1.60
2018-11-02T08:56:23.198Z,2.40
2018-11-02T08:58:53.446Z,2.20
2018-11-02T09:01:23.554Z,2.00
2018-11-02T09:03:54.190Z,4.20
2018-11-02T09:06:24.491Z,2.00
2018-11-02T09:08:56.464Z,2.00
2018-11-02T09:11:26.484Z,2.00
2018-11-02T09:13:56.454Z,3.20
2018-11-02T09:16:27.211Z,2.00
2018-11-02T09:18:57.143Z,4.40
2018-11-02T09:21:27.984Z,4.00
2018-11-02T09:23:58.102Z,2.80
2018-11-02T09:26:28.257Z,2.40
2018-11-02T09:28:59.194Z,2.80
2018-11-02T09:31:28.977Z,4.00
2018-11-02T09:33:58.920Z,4.20
2018-11-02T09:36:29.111Z,4.00
2018-11-02T09:38:59.115Z,4.00
2018-11-02T09:41:30.317Z,2.00
2018-11-02T09:44:00.123Z,4.20
2018-11-02T09:46:30.253Z,6.00
2018-11-02T09:49:01.079Z,4.20
2018-11-02T09:51:31.993Z,2.00
2018-11-02T09:54:02.665Z,5.00
2018-11-02T09:56:32.858Z,2.00
2018-11-02T09:59:03.410Z,4.00
2018-11-02T10:01:34.062Z,4.60
2018-11-02T10:04:04.934Z,4.00
2018-11-02T10:06:35.094Z,4.80
2018-11-02T10:09:05.532Z,4.40
2018-11-02T10:11:35.654Z,4.20
2018-11-02T10:14:05.679Z,3.20
2018-11-02T10:16:35.491Z,0.60
2018-11-02T10:19:06.100Z,4.00
2018-11-02T10:21:36.024Z,4.20
2018-11-02T10:24:06.171Z,4.00
2018-11-02T10:26:36.083Z,4.00
2018-11-02T10:29:06.726Z,4.20
2018-11-02T10:31:37.112Z,2.00
2018-11-02T10:34:08.477Z,4.00
2018-11-02T10:36:42.255Z,4.00
2018-11-02T10:39:14.179Z,4.60
2018-11-02T10:41:47.198Z,4.00
2018-11-02T10:44:21.859Z,3.20
2018-11-02T10:46:51.685Z,3.60
2018-11-02T10:49:26.254Z,5.00
2018-11-02T10:51:58.448Z,4.00
2018-11-02T10:54:28.443Z,4.00
2018-11-02T10:56:59.094Z,2.40
2018-11-02T10:59:28.950Z,4.20
2018-11-02T11:02:05.632Z,4.00
2018-11-02T11:04:36.193Z,2.00
2018-11-02T11:07:06.421Z,2.00
2018-11-02T11:09:37.191Z,4.80
2018-11-02T11:12:09.408Z,3.60
2018-11-02T11:14:44.430Z,3.20
2018-11-02T11:17:15.195Z,4.00
2018-11-02T11:19:45.217Z,5.00
2018-11-02T11:22:15.467Z,4.00
2018-11-02T11:24:45.184Z,3.60
2018-11-02T11:27:15.198Z,3.60
2018-11-02T11:29:45.182Z,2.00
2018-11-02T11:32:14.925Z,3.20
2018-11-02T11:34:45.115Z,4.00
2018-11-02T11:37:14.952Z,4.00
2018-11-02T11:39:45.187Z,4.00
2018-11-02T11:42:15.907Z,4.00
2018-11-02T11:44:46.520Z,4.00
2018-11-02T11:47:16.914Z,5.00
2018-11-02T11:49:47.416Z,5.60
2018-11-02T11:52:17.401Z,5.20
2018-11-02T11:54:47.385Z,3.60
2018-11-02T11:57:17.770Z,5.20
2018-11-02T11:59:48.524Z,6.00
2018-11-02T12:02:18.618Z,5.80
2018-11-02T12:04:49.098Z,6.00
2018-11-02T12:07:19.319Z,9.20
2018-11-02T12:09:50.120Z,8.00
2018-11-02T12:12:21.070Z,6.00
2018-11-02T12:14:52.277Z,5.20
2018-11-02T12:17:22.543Z,8.00
2018-11-02T12:19:52.745Z,4.80
2018-11-02T12:22:25.144Z,8.80
2018-11-02T12:24:55.706Z,6.40
2018-11-02T12:27:25.567Z,5.80
2018-11-02T12:29:57.588Z,5.40
2018-11-02T12:32:29.300Z,6.20
2018-11-02T12:35:00.311Z,7.20
2018-11-02T12:37:30.651Z,7.20
2018-11-02T12:40:01.593Z,9.00
2018-11-02T12:42:32.118Z,4.20
2018-11-02T12:45:02.841Z,5.20
2018-11-02T12:47:32.650Z,4.80
2018-11-02T12:50:04.225Z,5.00
2018-11-02T12:52:34.267Z,4.80
2018-11-02T12:55:04.835Z,4.80
2018-11-02T12:57:36.686Z,4.40
2018-11-02T13:00:09.063Z,4.60
2018-11-02T13:02:39.022Z,2.00
2018-11-02T13:05:12.240Z,4.40
2018-11-02T13:07:46.974Z,5.00
2018-11-02T13:10:19.423Z,4.00
2018-11-02T13:12:50.730Z,5.80
2018-11-02T13:15:22.190Z,2.80
2018-11-02T13:17:53.187Z,3.60
2018-11-02T13:20:23.228Z,5.00
2018-11-02T13:22:54.388Z,4.00
2018-11-02T13:25:25.034Z,4.00
2018-11-02T13:27:55.093Z,4.00
2018-11-02T13:30:26.651Z,4.00
2018-11-02T13:32:57.130Z,5.20
2018-11-02T13:35:27.598Z,2.80
2018-11-02T13:37:57.771Z,5.80
2018-11-02T13:40:28.749Z,1.00
2018-11-02T13:42:59.156Z,5.00
2018-11-02T13:45:29.358Z,1.60
2018-11-02T13:47:59.734Z,3.20
2018-11-02T13:50:30.287Z,4.40
2018-11-02T13:53:00.742Z,4.00
2018-11-02T13:55:31.095Z,2.40
2018-11-02T13:58:01.273Z,6.20
2018-11-02T14:00:31.387Z,4.40
2018-11-02T14:03:02.291Z,3.20
2018-11-02T14:05:32.378Z,3.60
2018-11-02T14:08:02.201Z,4.60
2018-11-02T14:10:34.187Z,4.00
2018-11-02T14:13:06.461Z,4.00
2018-11-02T14:15:36.516Z,2.00
2018-11-02T14:18:07.109Z,5.20
2018-11-02T14:20:39.091Z,1.00
2018-11-02T14:23:09.141Z,3.60
2018-11-02T14:25:39.079Z,4.00
2018-11-02T14:28:08.798Z,3.60
2018-11-02T14:30:39.126Z,2.40
2018-11-02T14:33:10.207Z,4.40
2018-11-02T14:35:40.348Z,5.00
2018-11-02T14:38:10.357Z,3.20
2018-11-02T14:40:40.421Z,1.80
2018-11-02T14:43:10.943Z,2.00
2018-11-02T14:45:41.838Z,2.40
2018-11-02T14:48:12.080Z,4.60
2018-11-02T14:50:46.544Z,4.00
2018-11-02T14:53:17.695Z,4.00
2018-11-02T14:55:48.187Z,3.80
2018-11-02T14:58:18.871Z,4.00
2018-11-02T15:00:48.776Z,1.80
2018-11-02T15:03:20.086Z,2.80
2018-11-02T15:05:50.202Z,4.40
2018-11-02T15:08:20.508Z,2.80
2018-11-02T15:10:56.379Z,5.80
2018-11-02T15:13:30.228Z,4.40
2018-11-02T15:16:01.720Z,3.80
2018-11-02T15:18:33.651Z,2.00
2018-11-02T15:21:05.044Z,2.00
2018-11-02T15:23:35.512Z,4.00
2018-11-02T15:26:05.803Z,4.60
2018-11-02T15:28:35.858Z,1.00
2018-11-02T15:31:07.205Z,4.20
2018-11-02T15:33:38.592Z,8.40
2018-11-02T15:36:08.451Z,2.00
2018-11-02T15:38:38.814Z,4.40
2018-11-02T15:41:09.146Z,4.00
2018-11-02T15:43:39.157Z,4.00
2018-11-02T15:46:09.517Z,3.20
2018-11-02T15:48:41.403Z,3.60
2018-11-02T15:51:11.675Z,5.60
2018-11-02T15:53:41.914Z,3.80
2018-11-02T15:56:11.695Z,2.00
2018-11-02T15:58:41.743Z,4.40
2018-11-02T16:01:12.725Z,4.00
2018-11-02T16:03:44.570Z,3.60
2018-11-02T16:06:14.738Z,2.00
2018-11-02T16:08:45.852Z,2.00
2018-11-02T16:11:17.468Z,4.80
2018-11-02T16:13:48.431Z,4.00
2018-11-02T16:16:18.646Z,4.40
2018-11-02T16:18:48.872Z,5.00
2018-11-02T16:21:19.282Z,2.00
2018-11-02T16:23:49.874Z,4.20
2018-11-02T16:26:21.296Z,4.00
2018-11-02T16:28:51.728Z,4.80
2018-11-02T16:31:22.412Z,4.00
2018-11-02T16:33:52.143Z,4.60
2018-11-02T16:36:22.166Z,3.60
2018-11-02T16:38:53.725Z,3.60
2018-11-02T16:41:24.192Z,4.00
2018-11-02T16:43:54.999Z,2.00
2018-11-02T16:46:26.683Z,4.40
2018-11-02T16:48:57.441Z,5.00
2018-11-02T16:51:29.710Z,4.00
2018-11-02T16:53:59.831Z,4.00
2018-11-02T16:56:31.711Z,4.00
2018-11-02T16:59:03.314Z,4.00
2018-11-02T17:01:35.225Z,4.60
2018-11-02T17:04:06.209Z,4.20
2018-11-02T17:06:36.155Z,5.00
2018-11-02T17:09:07.900Z,5.00
2018-11-02T17:11:38.992Z,4.00
2018-11-02T17:14:09.187Z,5.80
2018-11-02T17:16:39.721Z,5.00
2018-11-02T17:19:09.704Z,4.00
2018-11-02T17:21:39.956Z,4.20
2018-11-02T17:24:09.926Z,6.40
2018-11-02T17:26:40.742Z,6.80
2018-11-02T17:29:11.324Z,4.00
2018-11-02T17:31:42.207Z,6.40
2018-11-02T17:34:12.418Z,8.80
2018-11-02T17:36:45.474Z,5.00
2018-11-02T17:39:16.089Z,5.00
2018-11-02T17:41:46.353Z,6.80
2018-11-02T17:44:17.360Z,5.80
2018-11-02T17:46:48.468Z,7.60
2018-11-02T17:49:20.452Z,5.20
2018-11-02T17:51:51.042Z,4.80
2018-11-02T17:54:21.202Z,4.00
2018-11-02T17:56:51.132Z,5.00
2018-11-02T17:59:21.678Z,7.20
2018-11-02T18:01:52.978Z,7.60
2018-11-02T18:04:22.933Z,4.40
2018-11-02T18:06:52.996Z,4.40
2018-11-02T18:09:23.117Z,8.80
2018-11-02T18:11:53.865Z,6.20
2018-11-02T18:14:24.201Z,5.00
2018-11-02T18:16:54.491Z,4.20
2018-11-02T18:19:24.308Z,5.60
2018-11-02T18:21:54.719Z,6.20
2018-11-02T18:24:25.659Z,6.40
2018-11-02T18:26:56.087Z,8.40
2018-11-02T18:29:27.385Z,5.00
2018-11-02T18:31:58.629Z,5.40
2018-11-02T18:34:29.197Z,6.20
2018-11-02T18:36:59.780Z,5.40
2018-11-02T18:39:29.656Z,6.00
2018-11-02T18:42:00.051Z,6.00
2018-11-02T18:44:30.974Z,6.80
2018-11-02T18:47:01.252Z,6.00
2018-11-02T18:49:31.202Z,8.00
2018-11-02T18:52:02.113Z,6.20
2018-11-02T18:54:31.863Z,5.00
2018-11-02T18:57:02.632Z,5.00
2018-11-02T18:59:37.179Z,7.20
2018-11-02T19:02:08.850Z,8.00
2018-11-02T19:04:40.285Z,5.40
2018-11-02T19:07:11.347Z,6.20
2018-11-02T19:09:41.656Z,6.00
2018-11-02T19:12:12.249Z,9.00
2018-11-02T19:14:42.555Z,6.20
2018-11-02T19:17:12.783Z,5.00
2018-11-02T19:19:42.551Z,8.00
2018-11-02T19:22:14.389Z,5.00
2018-11-02T19:24:45.462Z,6.20
2018-11-02T19:27:19.787Z,5.00
2018-11-02T19:29:49.875Z,6.60
2018-11-02T19:32:20.133Z,8.00
2018-11-02T19:34:51.177Z,6.00
2018-11-02T19:37:21.078Z,5.60
2018-11-02T19:39:55.161Z,7.40
2018-11-02T19:42:25.387Z,5.80
2018-11-02T19:44:58.592Z,5.00
2018-11-02T19:47:34.517Z,5.00
2018-11-02T19:50:07.094Z,5.20
2018-11-02T19:52:37.522Z,7.20
2018-11-02T19:55:08.350Z,5.00
2018-11-02T19:57:38.209Z,4.40
2018-11-02T20:00:10.119Z,7.20
2018-11-02T20:02:41.127Z,6.40
2018-11-02T20:05:14.272Z,6.00
2018-11-02T20:07:45.180Z,6.00
2018-11-02T20:10:15.797Z,5.20
2018-11-02T20:12:45.875Z,8.20
2018-11-02T20:15:16.396Z,5.20
2018-11-02T20:17:46.089Z,6.00
2018-11-02T20:20:17.007Z,7.20
2018-11-02T20:22:47.666Z,2.00
2018-11-02T20:25:18.803Z,6.00
2018-11-02T20:27:49.363Z,6.00
2018-11-02T20:30:21.423Z,7.00
2018-11-02T20:32:51.856Z,5.40
2018-11-02T20:35:52.714Z,6.00
2018-11-02T20:38:23.444Z,6.20
2018-11-02T20:40:54.109Z,8.40
2018-11-02T20:43:24.652Z,5.40
2018-11-02T20:45:55.241Z,5.40
2018-11-02T20:48:25.784Z,8.60
2018-11-02T20:50:56.455Z,7.20
2018-11-02T20:53:26.693Z,6.00
2018-11-02T20:55:57.595Z,6.40
2018-11-02T20:58:28.068Z,6.00
2018-11-02T21:00:59.123Z,6.00
2018-11-02T21:03:29.951Z,7.20
2018-11-02T21:05:59.849Z,5.60
2018-11-02T21:08:30.387Z,6.00
2018-11-02T21:11:01.410Z,8.00
2018-11-02T21:13:31.850Z,6.00
2018-11-02T21:16:02.353Z,5.80
2018-11-02T21:18:33.251Z,4.40
2018-11-02T21:21:03.640Z,5.80
2018-11-02T21:23:34.375Z,6.80
2018-11-02T21:26:04.690Z,4.60
2018-11-02T21:28:35.139Z,6.00
2018-11-02T21:31:08.763Z,8.80
2018-11-02T21:33:39.948Z,6.00
2018-11-02T21:36:10.237Z,8.00
2018-11-02T21:38:40.644Z,6.00
2018-11-02T21:41:10.590Z,6.00
2018-11-02T21:43:40.310Z,5.00
2018-11-02T21:46:09.890Z,4.00
2018-11-02T21:48:40.738Z,6.00
2018-11-02T21:51:11.423Z,8.00
2018-11-02T21:53:43.204Z,5.60
2018-11-02T21:56:13.369Z,7.20
2018-11-02T21:58:45.758Z,8.00
2018-11-02T22:01:15.485Z,6.20
2018-11-02T22:03:46.316Z,5.00
2018-11-02T22:06:16.873Z,5.40
2018-11-02T22:08:47.570Z,8.00
2018-11-02T22:11:18.351Z,7.80
2018-11-02T22:13:48.292Z,5.20
2018-11-02T22:16:18.720Z,6.80
2018-11-02T22:18:49.317Z,7.20
2018-11-02T22:21:19.776Z,8.60
2018-11-02T22:23:50.664Z,7.40
2018-11-02T22:26:20.784Z,6.00
2018-11-02T22:28:54.343Z,5.20
2018-11-02T22:31:25.733Z,8.20
2018-11-02T22:33:59.096Z,5.20
2018-11-02T22:36:30.936Z,4.20
2018-11-02T22:39:06.204Z,7.00
2018-11-02T22:41:36.242Z,7.00
2018-11-02T22:44:06.371Z,7.00
2018-11-02T22:46:39.673Z,7.80
2018-11-02T22:49:09.883Z,8.00
2018-11-02T22:51:39.920Z,6.20
2018-11-02T22:54:11.021Z,6.20
2018-11-02T22:56:41.183Z,5.80
2018-11-02T22:59:13.847Z,5.00
2018-11-02T23:01:43.524Z,5.00
2018-11-02T23:04:13.488Z,7.00
2018-11-02T23:06:43.990Z,7.60
2018-11-02T23:09:15.237Z,5.20
2018-11-02T23:11:46.657Z,8.60
2018-11-02T23:14:17.334Z,7.20
2018-11-02T23:16:51.427Z,4.00
2018-11-02T23:19:24.282Z,7.00
2018-11-02T23:22:02.056Z,6.60
2018-11-02T23:24:37.281Z,6.60
2018-11-02T23:27:16.409Z,8.00
2018-11-02T23:29:50.209Z,4.40
2018-11-02T23:32:31.733Z,6.20
2018-11-02T23:35:04.623Z,7.60
2018-11-02T23:37:40.370Z,5.40
2018-11-02T23:40:15.528Z,6.60
2018-11-02T23:42:48.439Z,3.60
2018-11-02T23:45:20.415Z,5.80
2018-11-02T23:48:30.101Z,7.00
2018-11-02T23:51:04.477Z,4.80
2018-11-02T23:53:37.040Z,7.40
2018-11-02T23:56:12.162Z,5.00
2018-11-02T23:58:43.841Z,5.00
